Time,TemperatureF,DewpointF,PressureIn,WindDirection,WindDirectionDegrees,WindSpeedMPH,WindSpeedGustMPH,Humidity,HourlyPrecipIn,Conditions,Clouds,dailyrainin,SoftwareType,DateUTC
2013-05-07 00:00:00,61.7,38.9,29.87,SW,225,0.0,2.0,43,0.00,,,0.00,Weather View 32 v70,2013-05-07 05:00:00,
2013-05-07 00:05:00,61.5,39.9,29.87,SW,225,1.0,2.0,45,0.00,,,0.00,Weather View 32 v70,2013-05-07 05:05:00,
2013-05-07 00:10:00,61.6,39.4,29.87,SW,225,1.0,2.0,44,0.00,,,0.00,Weather View 32 v70,2013-05-07 05:10:00,
2013-05-07 00:15:00,61.4,41.5,29.88,WSW,247,2.0,2.0,48,0.00,,,0.00,Weather View 32 v70,2013-05-07 05:15:00,
2013-05-07 00:20:00,61.3,43.5,29.88,WSW,247,0.0,2.0,52,0.00,,,0.00,Weather View 32 v70,2013-05-07 05:20:00,
2013-05-07 00:25:00,61.1,44.8,29.88,WSW,247,1.0,2.0,55,0.00,,,0.00,Weather View 32 v70,2013-05-07 05:25:00,
2013-05-07 00:30:00,60.9,46.0,29.88,WSW,247,2.0,2.0,58,0.00,,,0.00,Weather View 32 v70,2013-05-07 05:30:00,
2013-05-07 00:35:00,60.4,49.0,29.88,WSW,247,2.0,2.0,66,0.00,,,0.00,Weather View 32 v70,2013-05-07 05:35:00,
2013-05-07 00:40:00,60.3,50.5,29.88,WSW,247,0.0,2.0,70,0.00,,,0.00,Weather View 32 v70,2013-05-07 05:40:00,
2013-05-07 00:45:00,60.2,51.9,29.88,WSW,247,0.0,2.0,74,0.00,,,0.00,Weather View 32 v70,2013-05-07 05:45:00,
2013-05-07 00:50:00,59.9,52.7,29.88,WSW,247,0.0,2.0,77,0.00,,,0.00,Weather View 32 v70,2013-05-07 05:50:00,
2013-05-07 00:55:00,59.9,53.4,29.88,West,270,1.0,2.0,79,0.00,,,0.00,Weather View 32 v70,2013-05-07 05:55:00,
2013-05-07 01:00:00,60.1,53.2,29.89,West,270,2.0,2.0,78,0.00,,,0.00,Weather View 32 v70,2013-05-07 06:00:00,
2013-05-07 01:05:00,60.1,52.8,29.89,West,270,0.0,2.0,77,0.00,,,0.00,Weather View 32 v70,2013-05-07 06:05:00,
2013-05-07 01:10:00,60.1,53.2,29.89,West,270,2.0,2.0,78,0.00,,,0.00,Weather View 32 v70,2013-05-07 06:10:00,
2013-05-07 01:15:00,59.9,54.7,29.89,West,270,0.0,2.0,83,0.00,,,0.00,Weather View 32 v70,2013-05-07 06:15:00,
2013-05-07 01:20:00,59.6,56.3,29.88,West,270,0.0,2.0,89,0.00,,,0.00,Weather View 32 v70,2013-05-07 06:20:00,
2013-05-07 01:25:00,59.3,57.3,29.88,West,270,0.0,2.0,93,0.00,,,0.00,Weather View 32 v70,2013-05-07 06:25:00,
2013-05-07 01:30:00,59.2,57.8,29.89,West,270,0.0,2.0,95,0.00,,,0.00,Weather View 32 v70,2013-05-07 06:30:00,
2013-05-07 01:35:00,59.3,58.2,29.89,West,270,0.0,2.0,96,0.00,,,0.00,Weather View 32 v70,2013-05-07 06:35:00,
2013-05-07 01:40:00,59.3,58.2,29.88,West,270,0.0,2.0,96,0.00,,,0.00,Weather View 32 v70,2013-05-07 06:40:00,
2013-05-07 01:45:00,59.5,57.5,29.88,West,270,0.0,2.0,93,0.00,,,0.00,Weather View 32 v70,2013-05-07 06:45:00,
2013-05-07 01:50:00,59.4,57.7,29.88,West,270,0.0,2.0,94,0.00,,,0.00,Weather View 32 v70,2013-05-07 06:50:00,
2013-05-07 01:55:00,59.9,56.3,29.88,West,270,0.0,2.0,88,0.00,,,0.00,Weather View 32 v70,2013-05-07 06:55:00,
2013-05-07 02:00:00,60.2,55.3,29.88,West,270,2.0,2.0,84,0.00,,,0.00,Weather View 32 v70,2013-05-07 07:00:00,
2013-05-07 02:05:00,60.6,54.0,29.88,West,270,1.0,2.0,79,0.00,,,0.00,Weather View 32 v70,2013-05-07 07:05:00,
2013-05-07 02:10:00,60.9,52.9,29.88,West,270,2.0,3.0,75,0.00,,,0.00,Weather View 32 v70,2013-05-07 07:10:00,
2013-05-07 02:15:00,61.0,52.3,29.88,West,270,1.0,3.0,73,0.00,,,0.00,Weather View 32 v70,2013-05-07 07:15:00,
2013-05-07 02:20:00,61.2,51.3,29.87,West,270,0.0,3.0,70,0.00,,,0.00,Weather View 32 v70,2013-05-07 07:20:00,
2013-05-07 02:25:00,61.3,50.2,29.87,West,270,1.0,3.0,67,0.00,,,0.00,Weather View 32 v70,2013-05-07 07:25:00,
2013-05-07 02:30:00,61.4,50.3,29.87,West,270,1.0,3.0,67,0.00,,,0.00,Weather View 32 v70,2013-05-07 07:30:00,
2013-05-07 02:35:00,61.4,50.7,29.87,West,270,1.0,3.0,68,0.00,,,0.00,Weather View 32 v70,2013-05-07 07:35:00,
2013-05-07 02:40:00,61.3,51.0,29.87,West,270,2.0,3.0,69,0.00,,,0.00,Weather View 32 v70,2013-05-07 07:40:00,
2013-05-07 02:45:00,61.3,50.6,29.87,WNW,292,1.0,3.0,68,0.00,,,0.00,Weather View 32 v70,2013-05-07 07:45:00,
2013-05-07 02:50:00,61.4,50.7,29.87,WNW,292,2.0,3.0,68,0.00,,,0.00,Weather View 32 v70,2013-05-07 07:50:00,
2013-05-07 02:55:00,61.4,50.7,29.87,WNW,292,1.0,3.0,68,0.00,,,0.00,Weather View 32 v70,2013-05-07 07:55:00,
2013-05-07 03:00:00,61.5,50.4,29.87,WNW,292,2.0,3.0,67,0.00,,,0.00,Weather View 32 v70,2013-05-07 08:00:00,
2013-05-07 03:05:00,61.4,50.7,29.87,WNW,292,2.0,3.0,68,0.00,,,0.00,Weather View 32 v70,2013-05-07 08:05:00,
2013-05-07 03:10:00,61.4,51.1,29.87,WNW,292,1.0,2.0,69,0.00,,,0.00,Weather View 32 v70,2013-05-07 08:10:00,
2013-05-07 03:15:00,61.3,51.4,29.87,WNW,292,0.0,2.0,70,0.00,,,0.00,Weather View 32 v70,2013-05-07 08:15:00,
2013-05-07 03:20:00,61.2,51.7,29.87,WNW,292,1.0,2.0,71,0.00,,,0.00,Weather View 32 v70,2013-05-07 08:20:00,
2013-05-07 03:25:00,61.1,52.4,29.87,WNW,292,1.0,2.0,73,0.00,,,0.00,Weather View 32 v70,2013-05-07 08:25:00,
2013-05-07 03:30:00,60.9,53.3,29.87,WNW,292,0.0,2.0,76,0.00,,,0.00,Weather View 32 v70,2013-05-07 08:30:00,
2013-05-07 03:35:00,60.5,55.0,29.87,WNW,292,0.0,2.0,82,0.00,,,0.00,Weather View 32 v70,2013-05-07 08:35:00,
2013-05-07 03:40:00,60.3,55.8,29.87,WNW,292,0.0,2.0,85,0.00,,,0.00,Weather View 32 v70,2013-05-07 08:40:00,
2013-05-07 03:45:00,60.3,56.1,29.87,WNW,292,0.0,2.0,86,0.00,,,0.00,Weather View 32 v70,2013-05-07 08:45:00,
2013-05-07 03:50:00,60.3,56.1,29.87,WNW,292,0.0,2.0,86,0.00,,,0.00,Weather View 32 v70,2013-05-07 08:50:00,
2013-05-07 03:55:00,60.2,56.9,29.87,WNW,292,0.0,2.0,89,0.00,,,0.00,Weather View 32 v70,2013-05-07 08:55:00,
2013-05-07 04:00:00,60.2,56.9,29.87,WNW,292,0.0,2.0,89,0.00,,,0.00,Weather View 32 v70,2013-05-07 09:00:00,
2013-05-07 04:05:00,60.0,57.7,29.88,WNW,292,0.0,2.0,92,0.00,,,0.00,Weather View 32 v70,2013-05-07 09:05:00,
2013-05-07 04:10:00,59.9,58.5,29.88,WNW,292,0.0,2.0,95,0.00,,,0.00,Weather View 32 v70,2013-05-07 09:10:00,
2013-05-07 04:15:00,59.7,58.8,29.87,WNW,292,1.0,2.0,97,0.00,,,0.00,Weather View 32 v70,2013-05-07 09:15:00,
2013-05-07 04:20:00,59.7,59.1,29.88,WNW,292,0.0,2.0,98,0.00,,,0.00,Weather View 32 v70,2013-05-07 09:20:00,
2013-05-07 04:25:00,59.6,59.0,29.88,WNW,292,0.0,2.0,98,0.00,,,0.00,Weather View 32 v70,2013-05-07 09:25:00,
2013-05-07 04:30:00,59.4,58.8,29.88,WNW,292,0.0,2.0,98,0.00,,,0.00,Weather View 32 v70,2013-05-07 09:30:00,
2013-05-07 04:35:00,58.9,58.3,29.88,WNW,292,0.0,2.0,98,0.00,,,0.00,Weather View 32 v70,2013-05-07 09:35:00,
2013-05-07 04:40:00,59.1,58.5,29.88,WNW,292,1.0,2.0,98,0.00,,,0.00,Weather View 32 v70,2013-05-07 09:40:00,
2013-05-07 04:45:00,59.1,58.5,29.88,WNW,292,0.0,2.0,98,0.00,,,0.00,Weather View 32 v70,2013-05-07 09:45:00,
2013-05-07 04:50:00,59.1,58.5,29.88,WNW,292,2.0,2.0,98,0.00,,,0.00,Weather View 32 v70,2013-05-07 09:50:00,
2013-05-07 04:55:00,58.9,58.3,29.88,WNW,292,2.0,2.0,98,0.00,,,0.00,Weather View 32 v70,2013-05-07 09:55:00,
2013-05-07 05:00:00,58.5,57.9,29.88,WNW,292,0.0,2.0,98,0.00,,,0.00,Weather View 32 v70,2013-05-07 10:00:00,
2013-05-07 05:05:00,58.2,17.2,29.88,WNW,292,1.0,2.0,20,0.00,,,0.00,Weather View 32 v70,2013-05-07 10:05:00,
2013-05-07 05:10:00,58.1,57.5,29.89,WNW,292,0.0,2.0,98,0.00,,,0.00,Weather View 32 v70,2013-05-07 10:10:00,
2013-05-07 05:15:00,58.0,57.4,29.89,WNW,292,0.0,2.0,98,0.00,,,0.00,Weather View 32 v70,2013-05-07 10:15:00,
2013-05-07 05:20:00,57.8,11.8,29.89,WNW,292,0.0,2.0,16,0.00,,,0.00,Weather View 32 v70,2013-05-07 10:20:00,
2013-05-07 05:25:00,57.9,57.1,29.89,WNW,292,0.0,2.0,97,0.00,,,0.00,Weather View 32 v70,2013-05-07 10:25:00,
2013-05-07 05:30:00,57.7,56.9,29.89,WNW,292,0.0,2.0,97,0.00,,,0.00,Weather View 32 v70,2013-05-07 10:30:00,
2013-05-07 05:35:00,57.5,56.7,29.88,WNW,292,0.0,2.0,97,0.00,,,0.00,Weather View 32 v70,2013-05-07 10:35:00,
2013-05-07 05:40:00,57.4,56.6,29.89,WNW,292,0.0,2.0,97,0.00,,,0.00,Weather View 32 v70,2013-05-07 10:40:00,
2013-05-07 05:45:00,57.3,56.5,29.89,WNW,292,1.0,2.0,97,0.00,,,0.00,Weather View 32 v70,2013-05-07 10:45:00,
2013-05-07 05:50:00,57.5,56.7,29.89,WNW,292,1.0,2.0,97,0.00,,,0.00,Weather View 32 v70,2013-05-07 10:50:00,
2013-05-07 05:55:00,57.5,56.7,29.89,WNW,292,0.0,2.0,97,0.00,,,0.00,Weather View 32 v70,2013-05-07 10:55:00,
2013-05-07 06:00:00,57.5,56.7,29.89,WNW,292,0.0,2.0,97,0.00,,,0.00,Weather View 32 v70,2013-05-07 11:00:00,
2013-05-07 06:05:00,57.0,56.2,29.89,WNW,292,0.0,2.0,97,0.00,,,0.00,Weather View 32 v70,2013-05-07 11:05:00,
2013-05-07 06:10:00,56.6,55.8,29.89,WNW,292,0.0,2.0,97,0.00,,,0.00,Weather View 32 v70,2013-05-07 11:10:00,
2013-05-07 06:15:00,56.6,55.8,29.89,WNW,292,0.0,2.0,97,0.00,,,0.00,Weather View 32 v70,2013-05-07 11:15:00,
2013-05-07 06:20:00,56.6,55.8,29.89,WNW,292,0.0,2.0,97,0.00,,,0.00,Weather View 32 v70,2013-05-07 11:20:00,
2013-05-07 06:25:00,56.5,55.7,29.89,WNW,292,0.0,2.0,97,0.00,,,0.00,Weather View 32 v70,2013-05-07 11:25:00,
2013-05-07 06:30:00,56.3,55.5,29.89,WNW,292,0.0,2.0,97,0.00,,,0.00,Weather View 32 v70,2013-05-07 11:30:00,
2013-05-07 06:35:00,56.3,55.5,29.90,WNW,292,0.0,2.0,97,0.00,,,0.00,Weather View 32 v70,2013-05-07 11:35:00,
2013-05-07 06:40:00,56.9,56.1,29.90,WNW,292,0.0,2.0,97,0.00,,,0.00,Weather View 32 v70,2013-05-07 11:40:00,
2013-05-07 06:45:00,56.9,56.1,29.90,WNW,292,0.0,2.0,97,0.00,,,0.00,Weather View 32 v70,2013-05-07 11:45:00,
2013-05-07 06:50:00,56.8,22.2,29.90,WNW,292,1.0,2.0,26,0.00,,,0.00,Weather View 32 v70,2013-05-07 11:50:00,
2013-05-07 06:55:00,56.9,56.1,29.90,WNW,292,0.0,2.0,97,0.00,,,0.00,Weather View 32 v70,2013-05-07 11:55:00,
2013-05-07 07:00:00,57.3,56.5,29.90,WNW,292,0.0,1.0,97,0.00,,,0.00,Weather View 32 v70,2013-05-07 12:00:00,
2013-05-07 07:05:00,57.9,20.3,29.91,WNW,292,0.0,1.0,23,0.00,,,0.00,Weather View 32 v70,2013-05-07 12:05:00,
2013-05-07 07:10:00,57.9,49.6,29.91,WNW,292,0.0,1.0,74,0.00,,,0.00,Weather View 32 v70,2013-05-07 12:10:00,
2013-05-07 07:15:00,58.5,57.9,29.91,WNW,292,0.0,1.0,98,0.00,,,0.00,Weather View 32 v70,2013-05-07 12:15:00,
2013-05-07 07:20:00,59.1,58.5,29.91,WNW,292,0.0,1.0,98,0.00,,,0.00,Weather View 32 v70,2013-05-07 12:20:00,
2013-05-07 07:25:00,59.7,59.1,29.91,WNW,292,1.0,1.0,98,0.00,,,0.00,Weather View 32 v70,2013-05-07 12:25:00,
2013-05-07 07:30:00,60.4,58.1,29.91,WNW,292,0.0,1.0,92,0.00,,,0.00,Weather View 32 v70,2013-05-07 12:30:00,
2013-05-07 07:35:00,61.7,53.7,29.91,WNW,292,0.0,1.0,75,0.00,,,0.00,Weather View 32 v70,2013-05-07 12:35:00,
2013-05-07 07:40:00,61.4,51.5,29.91,NW,315,1.0,4.0,70,0.00,,,0.00,Weather View 32 v70,2013-05-07 12:40:00,
2013-05-07 07:45:00,62.4,48.7,29.91,NNW,337,1.0,4.0,61,0.00,,,0.00,Weather View 32 v70,2013-05-07 12:45:00,
2013-05-07 07:50:00,62.9,44.5,29.91,NW,315,2.0,4.0,51,0.00,,,0.00,Weather View 32 v70,2013-05-07 12:50:00,
2013-05-07 07:55:00,63.2,41.5,29.92,NW,315,2.0,4.0,45,0.00,,,0.00,Weather View 32 v70,2013-05-07 12:55:00,
2013-05-07 08:00:00,63.6,39.4,29.92,NW,315,2.0,4.0,41,0.00,,,0.00,Weather View 32 v70,2013-05-07 13:00:00,
2013-05-07 08:05:00,63.8,37.6,29.92,NW,315,2.0,4.0,38,0.00,,,0.00,Weather View 32 v70,2013-05-07 13:05:00,
2013-05-07 08:10:00,63.8,35.6,29.92,NNW,337,1.0,5.0,35,0.00,,,0.00,Weather View 32 v70,2013-05-07 13:10:00,
2013-05-07 08:15:00,64.6,29.8,29.92,NNW,337,1.0,5.0,27,0.00,,,0.00,Weather View 32 v70,2013-05-07 13:15:00,
2013-05-07 08:20:00,65.6,18.1,29.92,NW,315,2.0,5.0,16,0.00,,,0.00,Weather View 32 v70,2013-05-07 13:20:00,
2013-05-07 08:25:00,65.1,20.5,29.92,NW,315,4.0,6.0,18,0.00,,,0.00,Weather View 32 v70,2013-05-07 13:25:00,
2013-05-07 08:30:00,65.6,15.0,29.93,NNW,337,2.0,6.0,14,0.00,,,0.00,Weather View 32 v70,2013-05-07 13:30:00,
2013-05-07 08:35:00,65.8,11.7,29.93,NW,315,2.0,6.0,12,0.00,,,0.00,Weather View 32 v70,2013-05-07 13:35:00,
2013-05-07 08:40:00,66.6,3.3,29.93,North,360,4.0,6.0,8,0.00,,,0.00,Weather View 32 v70,2013-05-07 13:40:00,
2013-05-07 08:45:00,68.1,-36.2,29.93,NNE,22,2.0,6.0,1,0.00,,,0.00,Weather View 32 v70,2013-05-07 13:45:00,
2013-05-07 08:50:00,68.5,-36.0,29.94,NNW,337,3.0,6.0,1,0.00,,,0.00,Weather View 32 v70,2013-05-07 13:50:00,
2013-05-07 08:55:00,69.2,-35.5,29.94,North,360,3.0,6.0,1,0.00,,,0.00,Weather View 32 v70,2013-05-07 13:55:00,
2013-05-07 09:00:00,70.3,-34.9,29.94,NNE,22,2.0,6.0,1,0.00,,,0.00,Weather View 32 v70,2013-05-07 14:00:00,
2013-05-07 09:05:00,70.9,-34.5,29.94,NNE,22,2.0,6.0,1,0.00,,,0.00,Weather View 32 v70,2013-05-07 14:05:00,
2013-05-07 09:10:00,70.5,-34.8,29.94,NW,315,1.0,6.0,1,0.00,,,0.00,Weather View 32 v70,2013-05-07 14:10:00,
2013-05-07 09:15:00,69.8,-35.2,29.94,NW,315,4.0,6.0,1,0.00,,,0.00,Weather View 32 v70,2013-05-07 14:15:00,
2013-05-07 09:20:00,70.7,-34.6,29.94,North,360,3.0,6.0,1,0.00,,,0.00,Weather View 32 v70,2013-05-07 14:20:00,
2013-05-07 09:25:00,71.1,-34.4,29.94,NNW,337,2.0,6.0,1,0.00,,,0.00,Weather View 32 v70,2013-05-07 14:25:00,
2013-05-07 09:30:00,72.1,-33.8,29.94,NNW,337,1.0,6.0,1,0.00,,,0.00,Weather View 32 v70,2013-05-07 14:30:00,
2013-05-07 09:35:00,73.7,-32.8,29.94,ENE,67,2.0,6.0,1,0.00,,,0.00,Weather View 32 v70,2013-05-07 14:35:00,
2013-05-07 09:40:00,73.4,-33.0,29.94,NNE,22,2.0,6.0,1,0.00,,,0.00,Weather View 32 v70,2013-05-07 14:40:00,
2013-05-07 09:45:00,74.3,-32.5,29.94,NE,45,3.0,6.0,1,0.00,,,0.00,Weather View 32 v70,2013-05-07 14:45:00,
2013-05-07 09:50:00,74.5,-32.4,29.94,NE,45,1.0,6.0,1,0.00,,,0.00,Weather View 32 v70,2013-05-07 14:50:00,
2013-05-07 09:55:00,75.6,-31.7,29.94,NNE,22,1.0,6.0,1,0.00,,,0.00,Weather View 32 v70,2013-05-07 14:55:00,
2013-05-07 10:00:00,74.4,-32.4,29.94,NW,315,2.0,6.0,1,0.00,,,0.00,Weather View 32 v70,2013-05-07 15:00:00,
2013-05-07 10:05:00,74.4,-32.4,29.94,NE,45,0.0,6.0,1,0.00,,,0.00,Weather View 32 v70,2013-05-07 15:05:00,
2013-05-07 10:10:00,74.7,-32.2,29.94,ENE,67,4.0,6.0,1,0.00,,,0.00,Weather View 32 v70,2013-05-07 15:10:00,
2013-05-07 10:15:00,74.8,-32.2,29.94,NNW,337,0.0,6.0,1,0.00,,,0.00,Weather View 32 v70,2013-05-07 15:15:00,
2013-05-07 10:20:00,75.3,-31.9,29.94,North,360,2.0,6.0,1,0.00,,,0.00,Weather View 32 v70,2013-05-07 15:20:00,
2013-05-07 10:25:00,76.0,-31.5,29.95,NE,45,0.0,6.0,1,0.00,,,0.00,Weather View 32 v70,2013-05-07 15:25:00,
2013-05-07 10:30:00,76.6,-31.1,29.95,ENE,67,2.0,6.0,1,0.00,,,0.00,Weather View 32 v70,2013-05-07 15:30:00,
2013-05-07 10:35:00,77.2,-30.7,29.95,NW,315,5.0,6.0,1,0.00,,,0.00,Weather View 32 v70,2013-05-07 15:35:00,
2013-05-07 10:40:00,76.3,-31.3,29.95,SW,225,3.0,6.0,1,0.00,,,0.00,Weather View 32 v70,2013-05-07 15:40:00,
2013-05-07 10:45:00,77.3,-30.7,29.95,NNW,337,1.0,6.0,1,0.00,,,0.00,Weather View 32 v70,2013-05-07 15:45:00,
2013-05-07 10:50:00,76.3,-31.3,29.95,East,90,2.0,6.0,1,0.00,,,0.00,Weather View 32 v70,2013-05-07 15:50:00,
2013-05-07 10:55:00,76.8,-31.0,29.95,West,270,2.0,6.0,1,0.00,,,0.00,Weather View 32 v70,2013-05-07 15:55:00,
2013-05-07 11:00:00,75.8,-31.6,29.95,WNW,292,3.0,6.0,1,0.00,,,0.00,Weather View 32 v70,2013-05-07 16:00:00,
2013-05-07 11:05:00,76.8,-31.0,29.95,South,180,1.0,6.0,1,0.00,,,0.00,Weather View 32 v70,2013-05-07 16:05:00,
2013-05-07 11:10:00,78.2,-30.1,29.95,North,360,1.0,6.0,1,0.00,,,0.00,Weather View 32 v70,2013-05-07 16:10:00,
2013-05-07 11:15:00,78.3,-30.1,29.95,NNW,337,2.0,6.0,1,0.00,,,0.00,Weather View 32 v70,2013-05-07 16:15:00,
2013-05-07 11:20:00,78.9,-29.7,29.95,SW,225,2.0,6.0,1,0.00,,,0.00,Weather View 32 v70,2013-05-07 16:20:00,
2013-05-07 11:25:00,78.1,-30.2,29.95,WNW,292,6.0,7.0,1,0.00,,,0.00,Weather View 32 v70,2013-05-07 16:25:00,
2013-05-07 11:31:00,77.2,-30.7,29.95,NW,315,2.0,7.0,1,0.00,,,0.00,Weather View 32 v70,2013-05-07 16:31:00,
2013-05-07 11:36:00,77.9,-30.3,29.95,WNW,292,2.0,7.0,1,0.00,,,0.00,Weather View 32 v70,2013-05-07 16:36:00,
2013-05-07 11:41:00,79.1,-29.6,29.95,NW,315,2.0,7.0,1,0.00,,,0.00,Weather View 32 v70,2013-05-07 16:41:00,
2013-05-07 11:46:00,78.2,-30.1,29.95,WSW,247,2.0,7.0,1,0.00,,,0.00,Weather View 32 v70,2013-05-07 16:46:00,
2013-05-07 11:51:00,78.4,-30.0,29.95,WSW,247,7.0,9.0,1,0.00,,,0.00,Weather View 32 v70,2013-05-07 16:51:00,
2013-05-07 11:56:00,79.1,-29.6,29.95,NW,315,5.0,9.0,1,0.00,,,0.00,Weather View 32 v70,2013-05-07 16:56:00,
2013-05-07 12:01:00,78.5,-30.0,29.95,SW,225,0.0,9.0,1,0.00,,,0.00,Weather View 32 v70,2013-05-07 17:01:00,
2013-05-07 12:06:00,79.2,-29.6,29.95,WNW,292,2.0,9.0,1,0.00,,,0.00,Weather View 32 v70,2013-05-07 17:06:00,
2013-05-07 12:11:00,78.6,-29.9,29.95,ENE,67,3.0,9.0,1,0.00,,,0.00,Weather View 32 v70,2013-05-07 17:11:00,
2013-05-07 12:16:00,79.5,-29.4,29.95,South,180,2.0,9.0,1,0.00,,,0.00,Weather View 32 v70,2013-05-07 17:16:00,
2013-05-07 12:21:00,80.4,-28.8,29.95,East,90,2.0,9.0,1,0.00,,,0.00,Weather View 32 v70,2013-05-07 17:21:00,
2013-05-07 12:26:00,78.7,-29.8,29.94,WNW,292,2.0,9.0,1,0.00,,,0.00,Weather View 32 v70,2013-05-07 17:26:00,
2013-05-07 12:31:00,78.5,-30.0,29.94,WNW,292,6.0,9.0,1,0.00,,,0.00,Weather View 32 v70,2013-05-07 17:31:00,
2013-05-07 12:36:00,78.9,-29.7,29.94,WNW,292,4.0,9.0,1,0.00,,,0.00,Weather View 32 v70,2013-05-07 17:36:00,
2013-05-07 12:41:00,79.8,-29.2,29.94,ESE,112,2.0,9.0,1,0.00,,,0.00,Weather View 32 v70,2013-05-07 17:41:00,
2013-05-07 12:46:00,79.5,-29.4,29.93,East,90,2.0,9.0,1,0.00,,,0.00,Weather View 32 v70,2013-05-07 17:46:00,
2013-05-07 12:51:00,78.9,-29.7,29.93,North,360,2.0,9.0,1,0.00,,,0.00,Weather View 32 v70,2013-05-07 17:51:00,
2013-05-07 12:56:00,79.3,-29.5,29.93,ENE,67,6.0,9.0,1,0.00,,,0.00,Weather View 32 v70,2013-05-07 17:56:00,
2013-05-07 13:01:00,79.8,-29.2,29.93,WNW,292,7.0,11.0,1,0.00,,,0.00,Weather View 32 v70,2013-05-07 18:01:00,
2013-05-07 13:06:00,80.2,-29.0,29.93,NNE,22,2.0,11.0,1,0.00,,,0.00,Weather View 32 v70,2013-05-07 18:06:00,
2013-05-07 13:11:00,80.4,-28.8,29.92,WNW,292,8.0,11.0,1,0.00,,,0.00,Weather View 32 v70,2013-05-07 18:11:00,
2013-05-07 13:16:00,79.6,-29.3,29.92,SW,225,4.0,11.0,1,0.00,,,0.00,Weather View 32 v70,2013-05-07 18:16:00,
2013-05-07 13:21:00,80.6,-28.7,29.92,WSW,247,2.0,11.0,1,0.00,,,0.00,Weather View 32 v70,2013-05-07 18:21:00,
2013-05-07 13:26:00,80.8,-28.6,29.91,SSE,157,3.0,11.0,1,0.00,,,0.00,Weather View 32 v70,2013-05-07 18:26:00,
2013-05-07 13:31:00,81.4,-28.2,29.91,SW,225,2.0,11.0,1,0.00,,,0.00,Weather View 32 v70,2013-05-07 18:31:00,
2013-05-07 13:36:00,81.8,-28.0,29.91,NE,45,4.0,11.0,1,0.00,,,0.00,Weather View 32 v70,2013-05-07 18:36:00,
2013-05-07 13:41:00,80.7,-28.7,29.91,West,270,4.0,11.0,1,0.00,,,0.00,Weather View 32 v70,2013-05-07 18:41:00,
2013-05-07 13:46:00,80.8,-28.6,29.91,South,180,2.0,11.0,1,0.00,,,0.00,Weather View 32 v70,2013-05-07 18:46:00,
2013-05-07 13:51:00,81.1,-28.4,29.91,West,270,4.0,11.0,1,0.00,,,0.00,Weather View 32 v70,2013-05-07 18:51:00,
2013-05-07 13:56:00,81.1,-28.4,29.91,West,270,2.0,11.0,1,0.00,,,0.00,Weather View 32 v70,2013-05-07 18:56:00,
2013-05-07 14:01:00,81.2,-28.4,29.91,SW,225,1.0,11.0,1,0.00,,,0.00,Weather View 32 v70,2013-05-07 19:01:00,
2013-05-07 14:06:00,81.2,-28.4,29.90,ESE,112,5.0,11.0,1,0.00,,,0.00,Weather View 32 v70,2013-05-07 19:06:00,
2013-05-07 14:11:00,80.8,-28.6,29.90,North,360,3.0,11.0,1,0.00,,,0.00,Weather View 32 v70,2013-05-07 19:11:00,
2013-05-07 14:16:00,81.6,-28.1,29.90,NNE,22,1.0,9.0,1,0.00,,,0.00,Weather View 32 v70,2013-05-07 19:16:00,
2013-05-07 14:21:00,83.2,-27.2,29.90,SSW,202,1.0,9.0,1,0.00,,,0.00,Weather View 32 v70,2013-05-07 19:21:00,
2013-05-07 14:26:00,83.6,-26.9,29.90,WNW,292,1.0,9.0,1,0.00,,,0.00,Weather View 32 v70,2013-05-07 19:26:00,
2013-05-07 14:31:00,82.4,-27.6,29.89,WSW,247,2.0,9.0,1,0.00,,,0.00,Weather View 32 v70,2013-05-07 19:31:00,
2013-05-07 14:37:00,83.6,-26.9,29.89,South,180,3.0,9.0,1,0.00,,,0.00,Weather View 32 v70,2013-05-07 19:37:00,
2013-05-07 14:42:00,84.1,-26.6,29.89,NW,315,6.0,9.0,1,0.00,,,0.00,Weather View 32 v70,2013-05-07 19:42:00,
2013-05-07 14:47:00,83.9,-26.8,29.89,South,180,2.0,9.0,1,0.00,,,0.00,Weather View 32 v70,2013-05-07 19:47:00,
2013-05-07 14:52:00,83.2,-27.2,29.87,NNW,337,6.0,19.0,1,0.00,,,0.00,Weather View 32 v70,2013-05-07 19:52:00,
2013-05-07 14:57:00,82.6,-27.5,29.89,North,360,4.0,19.0,1,0.00,,,0.00,Weather View 32 v70,2013-05-07 19:57:00,
2013-05-07 15:02:00,81.9,-27.9,29.89,SW,225,2.0,19.0,1,0.00,,,0.00,Weather View 32 v70,2013-05-07 20:02:00,
2013-05-07 15:07:00,82.4,-27.6,29.89,East,90,2.0,19.0,1,0.00,,,0.00,Weather View 32 v70,2013-05-07 20:07:00,
2013-05-07 15:12:00,82.9,-27.4,29.88,NW,315,8.0,19.0,1,0.00,,,0.00,Weather View 32 v70,2013-05-07 20:12:00,
2013-05-07 15:17:00,82.4,-27.6,29.88,WNW,292,6.0,19.0,1,0.00,,,0.00,Weather View 32 v70,2013-05-07 20:17:00,
2013-05-07 15:22:00,83.4,-27.1,29.88,NNW,337,2.0,19.0,1,0.00,,,0.00,Weather View 32 v70,2013-05-07 20:22:00,
2013-05-07 15:27:00,83.9,-26.8,29.88,WNW,292,4.0,19.0,1,0.00,,,0.00,Weather View 32 v70,2013-05-07 20:27:00,
2013-05-07 15:32:00,82.6,-27.5,29.88,NNW,337,2.0,19.0,1,0.00,,,0.00,Weather View 32 v70,2013-05-07 20:32:00,
2013-05-07 15:37:00,82.6,-27.5,29.87,West,270,1.0,19.0,1,0.00,,,0.00,Weather View 32 v70,2013-05-07 20:37:00,
2013-05-07 15:42:00,82.3,-27.7,29.87,South,180,2.0,19.0,1,0.00,,,0.00,Weather View 32 v70,2013-05-07 20:42:00,
2013-05-07 15:47:00,83.3,-27.1,29.87,NW,315,2.0,19.0,1,0.00,,,0.00,Weather View 32 v70,2013-05-07 20:47:00,
2013-05-07 15:52:00,83.8,-26.8,29.87,NNW,337,2.0,19.0,1,0.00,,,0.00,Weather View 32 v70,2013-05-07 20:52:00,
2013-05-07 15:57:00,82.8,-27.4,29.87,West,270,7.0,11.0,1,0.00,,,0.00,Weather View 32 v70,2013-05-07 20:57:00,
2013-05-07 16:02:00,83.7,-26.9,29.87,NW,315,1.0,11.0,1,0.00,,,0.00,Weather View 32 v70,2013-05-07 21:02:00,
2013-05-07 16:07:00,84.1,-26.6,29.87,WNW,292,3.0,11.0,1,0.00,,,0.00,Weather View 32 v70,2013-05-07 21:07:00,
2013-05-07 16:12:00,82.8,-27.4,29.86,West,270,3.0,11.0,1,0.00,,,0.00,Weather View 32 v70,2013-05-07 21:12:00,
2013-05-07 16:17:00,83.8,-26.8,29.86,WNW,292,2.0,11.0,1,0.00,,,0.00,Weather View 32 v70,2013-05-07 21:17:00,
2013-05-07 16:22:00,84.3,-26.5,29.86,WNW,292,1.0,11.0,1,0.00,,,0.00,Weather View 32 v70,2013-05-07 21:22:00,
2013-05-07 16:27:00,85.2,-26.0,29.86,SW,225,2.0,11.0,1,0.00,,,0.00,Weather View 32 v70,2013-05-07 21:27:00,
2013-05-07 16:32:00,85.5,-25.8,29.86,NNW,337,2.0,10.0,1,0.00,,,0.00,Weather View 32 v70,2013-05-07 21:32:00,
2013-05-07 16:37:00,85.6,-25.8,29.86,WSW,247,0.0,10.0,1,0.00,,,0.00,Weather View 32 v70,2013-05-07 21:37:00,
2013-05-07 16:42:00,87.1,-24.9,29.86,NW,315,0.0,10.0,1,0.00,,,0.00,Weather View 32 v70,2013-05-07 21:42:00,
2013-05-07 16:47:00,87.9,-24.4,29.86,WNW,292,2.0,10.0,1,0.00,,,0.00,Weather View 32 v70,2013-05-07 21:47:00,
2013-05-07 16:52:00,86.1,-25.5,29.86,WNW,292,1.0,10.0,1,0.00,,,0.00,Weather View 32 v70,2013-05-07 21:52:00,
2013-05-07 16:57:00,86.1,-25.5,29.86,NNW,337,2.0,10.0,1,0.00,,,0.00,Weather View 32 v70,2013-05-07 21:57:00,
2013-05-07 17:02:00,85.6,-25.8,29.86,NNW,337,4.0,10.0,1,0.00,,,0.00,Weather View 32 v70,2013-05-07 22:02:00,
2013-05-07 17:07:00,85.1,-26.0,29.86,NNE,22,4.0,10.0,1,0.00,,,0.00,Weather View 32 v70,2013-05-07 22:07:00,
2013-05-07 17:12:00,84.3,-26.5,29.86,NNE,22,3.0,7.0,1,0.00,,,0.00,Weather View 32 v70,2013-05-07 22:12:00,
2013-05-07 17:17:00,83.9,-26.8,29.86,North,360,1.0,6.0,1,0.00,,,0.00,Weather View 32 v70,2013-05-07 22:17:00,
2013-05-07 17:22:00,85.5,-25.8,29.86,NNW,337,0.0,6.0,1,0.00,,,0.00,Weather View 32 v70,2013-05-07 22:22:00,
2013-05-07 17:27:00,85.3,-25.9,29.85,SW,225,4.0,9.0,1,0.00,,,0.00,Weather View 32 v70,2013-05-07 22:27:00,
2013-05-07 17:33:00,83.9,-26.8,29.85,WNW,292,2.0,12.0,1,0.00,,,0.00,Weather View 32 v70,2013-05-07 22:33:00,
2013-05-07 17:38:00,83.9,-26.8,29.85,WSW,247,9.0,12.0,1,0.00,,,0.00,Weather View 32 v70,2013-05-07 22:38:00,
2013-05-07 17:43:00,83.2,-27.2,29.86,WSW,247,4.0,12.0,1,0.00,,,0.00,Weather View 32 v70,2013-05-07 22:43:00,
2013-05-07 17:48:00,83.4,-27.1,29.85,WNW,292,1.0,12.0,1,0.00,,,0.00,Weather View 32 v70,2013-05-07 22:48:00,
2013-05-07 17:53:00,83.2,-27.2,29.85,SSW,202,9.0,12.0,1,0.00,,,0.00,Weather View 32 v70,2013-05-07 22:53:00,
2013-05-07 17:58:00,82.5,-27.6,29.85,SW,225,9.0,14.0,1,0.00,,,0.00,Weather View 32 v70,2013-05-07 22:58:00,
2013-05-07 18:03:00,81.7,-28.1,29.85,West,270,1.0,14.0,1,0.00,,,0.00,Weather View 32 v70,2013-05-07 23:03:00,
2013-05-07 18:08:00,82.1,-27.8,29.85,WSW,247,5.0,14.0,1,0.00,,,0.00,Weather View 32 v70,2013-05-07 23:08:00,
2013-05-07 18:13:00,81.8,-28.0,29.85,WSW,247,7.0,14.0,1,0.00,,,0.00,Weather View 32 v70,2013-05-07 23:13:00,
2013-05-07 18:18:00,81.6,-28.1,29.85,SW,225,7.0,14.0,1,0.00,,,0.00,Weather View 32 v70,2013-05-07 23:18:00,
2013-05-07 18:23:00,81.9,-27.9,29.85,WSW,247,8.0,14.0,1,0.00,,,0.00,Weather View 32 v70,2013-05-07 23:23:00,
2013-05-07 18:28:00,81.6,-28.1,29.85,WSW,247,8.0,14.0,1,0.00,,,0.00,Weather View 32 v70,2013-05-07 23:28:00,
2013-05-07 18:33:00,81.4,-28.2,29.85,SW,225,7.0,14.0,1,0.00,,,0.00,Weather View 32 v70,2013-05-07 23:33:00,
2013-05-07 18:38:00,80.8,-28.6,29.85,SW,225,10.0,14.0,1,0.00,,,0.00,Weather View 32 v70,2013-05-07 23:38:00,
2013-05-07 18:43:00,80.6,-28.7,29.85,WSW,247,8.0,14.0,1,0.00,,,0.00,Weather View 32 v70,2013-05-07 23:43:00,
2013-05-07 18:48:00,79.8,-29.2,29.85,SSW,202,8.0,14.0,1,0.00,,,0.00,Weather View 32 v70,2013-05-07 23:48:00,
2013-05-07 18:53:00,78.9,-29.7,29.85,SW,225,15.0,16.0,1,0.00,,,0.00,Weather View 32 v70,2013-05-07 23:53:00,
2013-05-07 18:58:00,78.3,-30.1,29.85,SSW,202,7.0,17.0,1,0.00,,,0.00,Weather View 32 v70,2013-05-07 23:58:00,
2013-05-07 19:03:00,78.1,-30.2,29.85,SW,225,11.0,17.0,1,0.00,,,0.00,Weather View 32 v70,2013-05-08 00:03:00,
2013-05-07 19:08:00,77.8,-30.4,29.86,WSW,247,9.0,17.0,1,0.00,,,0.00,Weather View 32 v70,2013-05-08 00:08:00,
2013-05-07 19:13:00,77.5,-30.6,29.86,WSW,247,9.0,17.0,1,0.00,,,0.00,Weather View 32 v70,2013-05-08 00:13:00,
2013-05-07 19:18:00,77.2,-30.7,29.86,SSW,202,9.0,17.0,1,0.00,,,0.00,Weather View 32 v70,2013-05-08 00:18:00,
2013-05-07 19:23:00,76.7,-31.0,29.86,SW,225,5.0,17.0,1,0.00,,,0.00,Weather View 32 v70,2013-05-08 00:23:00,
2013-05-07 19:28:00,76.0,-31.5,29.87,SW,225,10.0,17.0,1,0.00,,,0.00,Weather View 32 v70,2013-05-08 00:28:00,
2013-05-07 19:33:00,75.6,-31.7,29.87,SW,225,9.0,17.0,1,0.00,,,0.00,Weather View 32 v70,2013-05-08 00:33:00,
2013-05-07 19:38:00,75.2,-31.9,29.87,SW,225,8.0,17.0,1,0.00,,,0.00,Weather View 32 v70,2013-05-08 00:38:00,
2013-05-07 19:43:00,74.8,-32.2,29.87,SW,225,8.0,17.0,1,0.00,,,0.00,Weather View 32 v70,2013-05-08 00:43:00,
2013-05-07 19:48:00,74.5,-32.4,29.87,SW,225,4.0,17.0,1,0.00,,,0.00,Weather View 32 v70,2013-05-08 00:48:00,
2013-05-07 19:53:00,74.1,-32.6,29.87,SSW,202,7.0,17.0,1,0.00,,,0.00,Weather View 32 v70,2013-05-08 00:53:00,
2013-05-07 19:58:00,73.8,-32.8,29.87,SSW,202,12.0,15.0,1,0.00,,,0.00,Weather View 32 v70,2013-05-08 00:58:00,
2013-05-07 20:04:00,73.4,-33.0,29.87,SW,225,7.0,15.0,1,0.00,,,0.00,Weather View 32 v70,2013-05-08 01:04:00,
2013-05-07 20:09:00,72.9,-33.3,29.87,SSW,202,4.0,15.0,1,0.00,,,0.00,Weather View 32 v70,2013-05-08 01:09:00,
2013-05-07 20:14:00,72.7,-33.4,29.88,SW,225,6.0,15.0,1,0.00,,,0.00,Weather View 32 v70,2013-05-08 01:14:00,
2013-05-07 20:19:00,72.4,-33.6,29.88,South,180,6.0,14.0,1,0.00,,,0.00,Weather View 32 v70,2013-05-08 01:19:00,
2013-05-07 20:24:00,72.2,-33.7,29.88,SSW,202,7.0,14.0,1,0.00,,,0.00,Weather View 32 v70,2013-05-08 01:24:00,
2013-05-07 20:29:00,71.8,-34.0,29.88,SSW,202,5.0,14.0,1,0.00,,,0.00,Weather View 32 v70,2013-05-08 01:29:00,
2013-05-07 20:34:00,71.6,-34.1,29.88,SSW,202,6.0,14.0,1,0.00,,,0.00,Weather View 32 v70,2013-05-08 01:34:00,
2013-05-07 20:39:00,71.3,-34.3,29.88,SSW,202,5.0,14.0,1,0.00,,,0.00,Weather View 32 v70,2013-05-08 01:39:00,
2013-05-07 20:44:00,71.1,-34.4,29.88,SW,225,6.0,14.0,1,0.00,,,0.00,Weather View 32 v70,2013-05-08 01:44:00,
2013-05-07 20:49:00,70.9,-34.5,29.88,SW,225,5.0,14.0,1,0.00,,,0.00,Weather View 32 v70,2013-05-08 01:49:00,
2013-05-07 20:54:00,70.6,-34.7,29.89,SW,225,7.0,14.0,1,0.00,,,0.00,Weather View 32 v70,2013-05-08 01:54:00,
2013-05-07 20:59:00,70.4,-34.8,29.89,SSW,202,7.0,14.0,1,0.00,,,0.00,Weather View 32 v70,2013-05-08 01:59:00,
2013-05-07 21:04:00,70.1,-35.0,29.89,SW,225,5.0,14.0,1,0.00,,,0.00,Weather View 32 v70,2013-05-08 02:04:00,
2013-05-07 21:09:00,69.9,-35.1,29.89,SW,225,6.0,11.0,1,0.00,,,0.00,Weather View 32 v70,2013-05-08 02:09:00,
2013-05-07 21:14:00,69.7,-35.2,29.89,SW,225,4.0,11.0,1,0.00,,,0.00,Weather View 32 v70,2013-05-08 02:14:00,
2013-05-07 21:19:00,69.4,-35.4,29.89,SSW,202,7.0,11.0,1,0.00,,,0.00,Weather View 32 v70,2013-05-08 02:19:00,
2013-05-07 21:24:00,69.2,-35.5,29.89,SSW,202,3.0,11.0,1,0.00,,,0.00,Weather View 32 v70,2013-05-08 02:24:00,
2013-05-07 21:29:00,68.7,-35.8,29.89,SSE,157,3.0,11.0,1,0.00,,,0.00,Weather View 32 v70,2013-05-08 02:29:00,
2013-05-07 21:34:00,68.2,-36.1,29.89,South,180,2.0,11.0,1,0.00,,,0.00,Weather View 32 v70,2013-05-08 02:34:00,
2013-05-07 21:39:00,67.9,-36.3,29.89,SSW,202,2.0,11.0,1,0.00,,,0.00,Weather View 32 v70,2013-05-08 02:39:00,
2013-05-07 21:44:00,67.4,-36.6,29.89,South,180,5.0,11.0,1,0.00,,,0.00,Weather View 32 v70,2013-05-08 02:44:00,
2013-05-07 21:49:00,67.3,-36.7,29.89,SSW,202,3.0,11.0,1,0.00,,,0.00,Weather View 32 v70,2013-05-08 02:49:00,
2013-05-07 21:54:00,67.1,-36.8,29.89,SSW,202,3.0,11.0,1,0.00,,,0.00,Weather View 32 v70,2013-05-08 02:54:00,
2013-05-07 21:59:00,67.1,-36.8,29.89,SSW,202,2.0,9.0,1,0.00,,,0.00,Weather View 32 v70,2013-05-08 02:59:00,
2013-05-07 22:04:00,66.9,-36.9,29.89,SSW,202,3.0,9.0,1,0.00,,,0.00,Weather View 32 v70,2013-05-08 03:04:00,
2013-05-07 22:09:00,66.7,-37.0,29.89,South,180,2.0,9.0,1,0.00,,,0.00,Weather View 32 v70,2013-05-08 03:09:00,
2013-05-07 22:14:00,66.4,-37.2,29.89,South,180,3.0,8.0,1,0.00,,,0.00,Weather View 32 v70,2013-05-08 03:14:00,
2013-05-07 22:19:00,66.1,-37.4,29.89,South,180,2.0,8.0,1,0.00,,,0.00,Weather View 32 v70,2013-05-08 03:19:00,
2013-05-07 22:24:00,65.7,-37.6,29.89,South,180,3.0,7.0,1,0.00,,,0.00,Weather View 32 v70,2013-05-08 03:24:00,
2013-05-07 22:29:00,65.6,-37.7,29.89,South,180,2.0,7.0,1,0.00,,,0.00,Weather View 32 v70,2013-05-08 03:29:00,
2013-05-07 22:34:00,65.4,-37.8,29.90,SSW,202,2.0,7.0,1,0.00,,,0.00,Weather View 32 v70,2013-05-08 03:34:00,
2013-05-07 22:39:00,65.4,-25.3,29.90,SSW,202,1.0,7.0,2,0.00,,,0.00,Weather View 32 v70,2013-05-08 03:39:00,
2013-05-07 22:44:00,65.3,-37.9,29.90,SSW,202,1.0,7.0,1,0.00,,,0.00,Weather View 32 v70,2013-05-08 03:44:00,
2013-05-07 22:49:00,65.2,-12.1,29.90,South,180,3.0,7.0,4,0.00,,,0.00,Weather View 32 v70,2013-05-08 03:49:00,
2013-05-07 22:54:00,65.1,-25.5,29.90,SSW,202,2.0,7.0,2,0.00,,,0.00,Weather View 32 v70,2013-05-08 03:54:00,
2013-05-07 22:59:00,64.9,-0.8,29.90,South,180,2.0,6.0,7,0.00,,,0.00,Weather View 32 v70,2013-05-08 03:59:00,
2013-05-07 23:01:00,64.8,-0.9,29.90,South,180,2.0,6.0,7,0.00,,,0.00,Weather View 32 v70,2013-05-08 04:01:00,
2013-05-07 23:06:00,64.4,-8.1,29.90,South,180,2.0,6.0,5,0.00,,,0.00,Weather View 32 v70,2013-05-08 04:06:00,
2013-05-07 23:10:00,64.4,-12.6,29.90,SSW,202,3.0,6.0,4,0.00,,,0.00,Weather View 32 v70,2013-05-08 04:10:00,
2013-05-07 23:15:00,64.3,-26.0,29.90,South,180,1.0,6.0,2,0.00,,,0.00,Weather View 32 v70,2013-05-08 04:15:00,
2013-05-07 23:20:00,64.1,1.5,29.90,South,180,2.0,6.0,8,0.00,,,0.00,Weather View 32 v70,2013-05-08 04:20:00,
2013-05-07 23:25:00,64.1,8.4,29.90,SSW,202,2.0,6.0,11,0.00,,,0.00,Weather View 32 v70,2013-05-08 04:25:00,
2013-05-07 23:30:00,64.1,-1.4,29.90,SSW,202,1.0,6.0,7,0.00,,,0.00,Weather View 32 v70,2013-05-08 04:30:00,
2013-05-07 23:35:00,63.9,3.9,29.90,SSW,202,1.0,6.0,9,0.00,,,0.00,Weather View 32 v70,2013-05-08 04:35:00,
2013-05-07 23:40:00,63.9,3.9,29.90,South,180,2.0,6.0,9,0.00,,,0.00,Weather View 32 v70,2013-05-08 04:40:00,
2013-05-07 23:45:00,64.2,6.4,29.90,SW,225,2.0,6.0,10,0.00,,,0.00,Weather View 32 v70,2013-05-08 04:45:00,
2013-05-07 23:50:00,64.1,6.3,29.90,SW,225,1.0,6.0,10,0.00,,,0.00,Weather View 32 v70,2013-05-08 04:50:00,
2013-05-07 23:55:00,63.9,53.9,29.90,SSW,202,2.0,4.0,70,0.00,,,0.00,Weather View 32 v70,2013-05-08 04:55:00,